Time;durP1;ratioP1;P1;durP2;ratioP2;P2;SDS_P1;SDS_P2;PMS_P1;PMS_P2;Temp;Humidity;BMP_temperature;BMP_pressure;BME280_temperature;BME280_humidity;BME280_pressure;Samples;Min_cycle;Max_cycle;Signal;HPM_P1;HPM_P2
2021/04/03 00:00:16;;;;;;;5.78;5.05;;;;;;;;;;4945585;29;20050;-63
2021/04/03 00:02:42;;;;;;;8.20;5.38;;;;;;;;;;4943130;28;20051;-63
2021/04/03 00:05:09;;;;;;;19.17;7.05;;;;;;;;;;4944677;29;20031;-63
2021/04/03 00:07:34;;;;;;;9.13;6.07;;;;;;;;;;4944351;28;20485;-63
2021/04/03 00:10:00;;;;;;;10.60;7.82;;;;;;;;;;4943530;29;20032;-63
2021/04/03 00:12:25;;;;;;;8.10;6.28;;;;;;;;;;4945253;28;20087;-63
2021/04/03 00:14:51;;;;;;;8.10;6.05;;;;;;;;;;4942190;29;20028;-64
2021/04/03 00:17:16;;;;;;;7.88;6.07;;;;;;;;;;4945521;28;20027;-63
2021/04/03 00:19:41;;;;;;;9.13;6.43;;;;;;;;;;4941120;28;20126;-64
2021/04/03 00:22:07;;;;;;;7.75;6.85;;;;;;;;;;4942588;29;20047;-63
2021/04/03 00:24:32;;;;;;;6.32;4.43;;;;;;;;;;4943630;28;20039;-63
2021/04/03 00:26:57;;;;;;;20.02;7.35;;;;;;;;;;4942420;29;20110;-64
2021/04/03 00:29:23;;;;;;;12.52;10.60;;;;;;;;;;4943739;28;20194;-63
2021/04/03 00:31:48;;;;;;;13.77;8.85;;;;;;;;;;4942246;29;20083;-63
2021/04/03 00:34:13;;;;;;;9.10;6.85;;;;;;;;;;4944358;29;20081;-64
2021/04/03 00:36:39;;;;;;;8.30;6.63;;;;;;;;;;4942898;28;20105;-63
2021/04/03 00:39:04;;;;;;;6.88;6.28;;;;;;;;;;4941838;29;20087;-63
2021/04/03 00:41:31;;;;;;;11.90;7.10;;;;;;;;;;4943464;28;20387;-64
2021/04/03 00:43:56;;;;;;;8.55;7.05;;;;;;;;;;4940101;29;20054;-64
2021/04/03 00:46:21;;;;;;;8.82;5.85;;;;;;;;;;4943671;29;20451;-63
2021/04/03 00:48:48;;;;;;;8.30;6.20;;;;;;;;;;4940749;29;20051;-63
2021/04/03 00:51:13;;;;;;;13.48;5.90;;;;;;;;;;4944042;29;20375;-64
2021/04/03 00:53:38;;;;;;;7.35;6.38;;;;;;;;;;4942265;28;20027;-63
2021/04/03 00:56:04;;;;;;;7.03;6.18;;;;;;;;;;4942615;29;20028;-63
2021/04/03 00:58:30;;;;;;;14.55;7.85;;;;;;;;;;4940395;28;20131;-64
2021/04/03 01:00:56;;;;;;;12.43;7.72;;;;;;;;;;4941601;29;20035;-64
2021/04/03 01:03:23;;;;;;;11.63;7.90;;;;;;;;;;4941371;28;20408;-63
2021/04/03 01:05:48;;;;;;;11.90;6.13;;;;;;;;;;4935535;29;20067;-63
2021/04/03 01:08:13;;;;;;;6.43;5.43;;;;;;;;;;4939017;29;20074;-63
2021/04/03 01:10:41;;;;;;;7.78;5.60;;;;;;;;;;4935352;28;20113;-63
2021/04/03 01:13:25;;;;;;;10.50;5.45;;;;;;;;;;4942454;29;20581;-65
2021/04/03 01:15:59;;;;;;;6.50;5.68;;;;;;;;;;4937637;29;20019;-64
2021/04/03 01:18:30;;;;;;;12.40;5.72;;;;;;;;;;4943210;28;20106;-63
2021/04/03 01:21:14;;;;;;;5.38;4.82;;;;;;;;;;4939676;29;20032;-63
2021/04/03 01:23:49;;;;;;;11.48;8.80;;;;;;;;;;4940872;28;20047;-63
2021/04/03 01:26:28;;;;;;;7.47;5.47;;;;;;;;;;4942773;29;20399;-64
2021/04/03 01:28:54;;;;;;;18.33;5.50;;;;;;;;;;4931674;29;20380;-63
2021/04/03 01:31:19;;;;;;;8.82;5.40;;;;;;;;;;4942238;29;20023;-63
2021/04/03 01:33:46;;;;;;;8.60;5.00;;;;;;;;;;4938697;28;20419;-63
2021/04/03 01:36:18;;;;;;;14.02;4.78;;;;;;;;;;4942873;29;20019;-63
2021/04/03 01:38:46;;;;;;;9.40;6.38;;;;;;;;;;4939649;29;20032;-64
2021/04/03 01:41:13;;;;;;;9.75;5.55;;;;;;;;;;4940458;28;20767;-63
2021/04/03 01:43:44;;;;;;;6.65;4.28;;;;;;;;;;4940115;28;20475;-63
2021/04/03 01:46:09;;;;;;;;;;;;;;;;;;4943020;29;20482;-64
2021/04/03 01:48:36;;;;;;;9.13;6.00;;;;;;;;;;4941713;28;19918;-63
2021/04/03 01:51:02;;;;;;;12.70;7.05;;;;;;;;;;4939743;29;20043;-63
2021/04/03 01:53:27;;;;;;;16.25;8.57;;;;;;;;;;4942580;28;20019;-63
2021/04/03 01:55:54;;;;;;;8.88;7.97;;;;;;;;;;4934245;29;20024;-63
2021/04/03 01:58:21;;;;;;;14.65;6.35;;;;;;;;;;4943046;28;20133;-63
2021/04/03 02:00:46;;;;;;;13.65;6.78;;;;;;;;;;4934564;28;20036;-63
2021/04/03 02:03:12;;;;;;;5.60;4.75;;;;;;;;;;4940958;29;20055;-63
2021/04/03 02:05:38;;;;;;;12.05;5.55;;;;;;;;;;4941335;28;20038;-64
2021/04/03 02:08:04;;;;;;;6.65;5.72;;;;;;;;;;4941374;29;20046;-63
2021/04/03 02:10:30;;;;;;;5.93;5.20;;;;;;;;;;4937313;29;20027;-63
2021/04/03 02:12:56;;;;;;;11.05;4.68;;;;;;;;;;4940796;29;20032;-62
2021/04/03 02:15:22;;;;;;;14.70;5.53;;;;;;;;;;4942591;28;20098;-63
2021/04/03 02:17:48;;;;;;;6.10;4.85;;;;;;;;;;4934882;29;20045;-63
2021/04/03 02:20:14;;;;;;;6.57;4.32;;;;;;;;;;4942408;29;20042;-63
2021/04/03 02:22:40;;;;;;;8.90;5.78;;;;;;;;;;4940729;28;20031;-63
2021/04/03 02:25:06;;;;;;;10.40;6.57;;;;;;;;;;4940735;29;20118;-63
2021/04/03 02:27:32;;;;;;;6.07;5.45;;;;;;;;;;4938765;29;20755;-63
2021/04/03 02:30:11;;;;;;;9.90;5.32;;;;;;;;;;4934818;29;20043;-63
2021/04/03 02:32:36;;;;;;;7.00;5.10;;;;;;;;;;4940837;28;20016;-63
2021/04/03 02:35:02;;;;;;;8.98;5.10;;;;;;;;;;4938913;29;20394;-63
2021/04/03 02:37:28;;;;;;;11.77;3.97;;;;;;;;;;4938611;28;20027;-63
2021/04/03 02:39:53;;;;;;;7.65;5.05;;;;;;;;;;4939858;29;20039;-64
2021/04/03 02:42:21;;;;;;;8.68;5.20;;;;;;;;;;4942055;28;20058;-62
2021/04/03 02:44:48;;;;;;;18.15;5.18;;;;;;;;;;4939613;28;20135;-63
2021/04/03 02:47:16;;;;;;;4.30;3.50;;;;;;;;;;4941988;29;20580;-63
2021/04/03 02:49:45;;;;;;;13.65;3.88;;;;;;;;;;4939892;28;20497;-63
2021/04/03 02:52:12;;;;;;;4.10;3.33;;;;;;;;;;4935296;29;20534;-62
2021/04/03 02:54:39;;;;;;;7.78;5.05;;;;;;;;;;4940168;29;20042;-63
2021/04/03 02:57:07;;;;;;;13.98;5.47;;;;;;;;;;4940931;29;20027;-63
2021/04/03 02:59:33;;;;;;;5.80;4.20;;;;;;;;;;4945051;28;20553;-63
2021/04/03 03:02:02;;;;;;;7.72;4.10;;;;;;;;;;4943815;28;20031;-63
2021/04/03 03:04:28;;;;;;;6.35;4.20;;;;;;;;;;4947676;28;20051;-63
2021/04/03 03:06:54;;;;;;;4.65;4.00;;;;;;;;;;4944631;29;20032;-63
2021/04/03 03:09:20;;;;;;;9.45;4.85;;;;;;;;;;4950245;28;20093;-63
2021/04/03 03:11:47;;;;;;;5.97;3.45;;;;;;;;;;4947851;28;20031;-63
2021/04/03 03:14:13;;;;;;;9.85;6.38;;;;;;;;;;4947608;28;20019;-63
2021/04/03 03:16:39;;;;;;;13.10;4.43;;;;;;;;;;4947511;28;20807;-63
2021/04/03 03:19:06;;;;;;;9.68;4.60;;;;;;;;;;4947717;28;20023;-63
2021/04/03 03:21:31;;;;;;;7.22;6.53;;;;;;;;;;4942887;28;20463;-63
2021/04/03 03:23:57;;;;;;;7.28;5.95;;;;;;;;;;4949241;29;20042;-63
2021/04/03 03:26:22;;;;;;;7.07;5.03;;;;;;;;;;4949159;28;20047;-63
2021/04/03 03:28:48;;;;;;;6.03;5.43;;;;;;;;;;4944090;29;20426;-63
2021/04/03 03:31:14;;;;;;;8.68;5.72;;;;;;;;;;4948833;28;20019;-63
2021/04/03 03:33:39;;;;;;;5.70;5.07;;;;;;;;;;4947395;28;20031;-63
2021/04/03 03:36:05;;;;;;;7.22;4.07;;;;;;;;;;4946168;29;20042;-63
2021/04/03 03:38:30;;;;;;;6.40;4.18;;;;;;;;;;4952294;28;20098;-63
2021/04/03 03:40:56;;;;;;;10.63;4.50;;;;;;;;;;4950967;28;20474;-63
2021/04/03 03:43:21;;;;;;;4.10;3.70;;;;;;;;;;4948841;28;20035;-63
2021/04/03 03:45:48;;;;;;;9.15;4.20;;;;;;;;;;4943024;28;20032;-63
2021/04/03 03:48:13;;;;;;;9.77;4.80;;;;;;;;;;4946466;28;20356;-63
2021/04/03 03:50:38;;;;;;;5.88;4.68;;;;;;;;;;4945150;28;20031;-63
2021/04/03 03:53:04;;;;;;;5.95;4.80;;;;;;;;;;4951385;28;20094;-63
2021/04/03 03:55:30;;;;;;;14.77;5.10;;;;;;;;;;4948406;28;20140;-63
2021/04/03 03:57:55;;;;;;;7.85;3.97;;;;;;;;;;4944423;29;20036;-63
2021/04/03 04:00:20;;;;;;;7.63;5.47;;;;;;;;;;4945747;28;20031;-63
2021/04/03 04:02:46;;;;;;;8.43;4.00;;;;;;;;;;4950957;28;20522;-63
2021/04/03 04:05:11;;;;;;;6.90;4.25;;;;;;;;;;4949344;28;20035;-63
2021/04/03 04:07:36;;;;;;;4.60;3.88;;;;;;;;;;4947535;28;20035;-63
2021/04/03 04:10:04;;;;;;;9.43;5.10;;;;;;;;;;4946692;29;20047;-63
2021/04/03 04:12:30;;;;;;;5.60;5.00;;;;;;;;;;4945979;28;20486;-63
2021/04/03 04:14:55;;;;;;;8.43;4.68;;;;;;;;;;4950503;28;20024;-63
2021/04/03 04:17:20;;;;;;;7.95;4.38;;;;;;;;;;4947300;28;20034;-63
2021/04/03 04:19:46;;;;;;;9.25;4.40;;;;;;;;;;4943779;28;20074;-63
2021/04/03 04:22:11;;;;;;;13.60;4.45;;;;;;;;;;4948624;29;20046;-63
2021/04/03 04:24:36;;;;;;;6.18;3.38;;;;;;;;;;4949591;28;20035;-63
2021/04/03 04:27:02;;;;;;;7.88;4.95;;;;;;;;;;4948111;28;20031;-63
2021/04/03 04:29:27;;;;;;;8.93;5.70;;;;;;;;;;4946008;28;20035;-63
2021/04/03 04:31:53;;;;;;;9.93;4.82;;;;;;;;;;4945834;29;20106;-63
2021/04/03 04:34:18;;;;;;;6.95;5.53;;;;;;;;;;4945598;28;20102;-63
2021/04/03 04:36:43;;;;;;;5.93;5.32;;;;;;;;;;4947717;28;20035;-64
2021/04/03 04:39:09;;;;;;;7.38;5.30;;;;;;;;;;4945446;28;20552;-63
2021/04/03 04:41:34;;;;;;;7.90;5.43;;;;;;;;;;4943585;28;20039;-63
2021/04/03 04:43:59;;;;;;;9.25;5.68;;;;;;;;;;4947582;29;20027;-63
2021/04/03 04:46:24;;;;;;;5.70;5.05;;;;;;;;;;4947717;28;20106;-63
2021/04/03 04:48:50;;;;;;;6.80;5.07;;;;;;;;;;4942815;29;20035;-63
2021/04/03 04:51:15;;;;;;;6.65;5.93;;;;;;;;;;4948505;28;20042;-63
2021/04/03 04:53:40;;;;;;;5.70;4.75;;;;;;;;;;4947712;28;20023;-63
2021/04/03 04:56:06;;;;;;;6.32;4.28;;;;;;;;;;4943746;28;20034;-63
2021/04/03 04:58:31;;;;;;;9.98;6.05;;;;;;;;;;4948585;28;20039;-63
2021/04/03 05:00:56;;;;;;;5.45;4.65;;;;;;;;;;4945323;29;20046;-63
2021/04/03 05:03:22;;;;;;;4.90;4.40;;;;;;;;;;4937391;28;20383;-63
2021/04/03 05:05:47;;;;;;;6.30;4.78;;;;;;;;;;4946049;29;20091;-63
2021/04/03 05:08:12;;;;;;;7.47;4.53;;;;;;;;;;4947069;28;20102;-63
2021/04/03 05:10:38;;;;;;;12.95;6.25;;;;;;;;;;4940618;28;20099;-63
2021/04/03 05:13:03;;;;;;;9.15;4.90;;;;;;;;;;4949385;28;20082;-64
2021/04/03 05:15:29;;;;;;;11.90;6.50;;;;;;;;;;4942321;28;20027;-63
2021/04/03 05:17:54;;;;;;;8.75;6.57;;;;;;;;;;4943536;29;20035;-63
2021/04/03 05:20:20;;;;;;;8.00;6.47;;;;;;;;;;4947844;28;20030;-63
2021/04/03 05:22:45;;;;;;;6.72;5.97;;;;;;;;;;4948382;29;20028;-63
2021/04/03 05:25:12;;;;;;;11.90;8.73;;;;;;;;;;4945522;28;20042;-63
2021/04/03 05:27:37;;;;;;;9.85;8.02;;;;;;;;;;4944955;28;20031;-63
2021/04/03 05:30:03;;;;;;;7.80;7.10;;;;;;;;;;4948817;28;20039;-63
2021/04/03 05:32:28;;;;;;;13.70;7.07;;;;;;;;;;4943825;29;20426;-64
2021/04/03 05:34:53;;;;;;;7.18;6.00;;;;;;;;;;4946381;29;20063;-63
2021/04/03 05:37:19;;;;;;;8.50;7.63;;;;;;;;;;4946948;28;20023;-63
2021/04/03 05:39:44;;;;;;;6.63;5.90;;;;;;;;;;4945420;28;20043;-63
2021/04/03 05:42:13;;;;;;;14.45;6.60;;;;;;;;;;4947589;28;20035;-63
2021/04/03 05:44:40;;;;;;;7.88;6.07;;;;;;;;;;4945254;28;20031;-63
2021/04/03 05:47:07;;;;;;;16.17;7.30;;;;;;;;;;4945937;29;20150;-63
2021/04/03 05:49:33;;;;;;;13.13;6.28;;;;;;;;;;4940592;28;20146;-63
2021/04/03 05:51:59;;;;;;;6.25;5.70;;;;;;;;;;4948224;29;20155;-63
2021/04/03 05:54:24;;;;;;;10.57;7.10;;;;;;;;;;4949096;28;21173;-63
2021/04/03 05:56:50;;;;;;;12.95;7.10;;;;;;;;;;4946672;29;20024;-63
2021/04/03 05:59:15;;;;;;;13.88;6.93;;;;;;;;;;4945252;28;20031;-63
2021/04/03 06:01:40;;;;;;;8.45;7.65;;;;;;;;;;4946330;28;20059;-63
2021/04/03 06:04:06;;;;;;;6.88;6.22;;;;;;;;;;4947130;28;20507;-63
2021/04/03 06:06:31;;;;;;;11.18;6.65;;;;;;;;;;4950067;28;20035;-63
2021/04/03 06:08:56;;;;;;;8.15;5.85;;;;;;;;;;4949058;29;20031;-63
2021/04/03 06:11:22;;;;;;;7.32;6.30;;;;;;;;;;4949263;28;20070;-63
2021/04/03 06:13:56;;;;;;;6.75;5.15;;;;;;;;;;4949900;29;20479;-63
2021/04/03 06:16:31;;;;;;;11.90;6.50;;;;;;;;;;4949676;28;20031;-63
2021/04/03 06:19:05;;;;;;;6.90;6.20;;;;;;;;;;4941211;29;20028;-63
2021/04/03 06:21:30;;;;;;;10.23;6.72;;;;;;;;;;4943552;28;20151;-63
2021/04/03 06:23:56;;;;;;;16.55;6.28;;;;;;;;;;4941764;29;20065;-63
2021/04/03 06:26:21;;;;;;;7.00;5.97;;;;;;;;;;4942913;28;20477;-63
2021/04/03 06:28:47;;;;;;;14.93;9.15;;;;;;;;;;4939587;28;20036;-63
2021/04/03 06:31:13;;;;;;;20.13;9.40;;;;;;;;;;4943799;29;20031;-63
2021/04/03 06:33:38;;;;;;;15.93;7.85;;;;;;;;;;4941632;28;20037;-63
2021/04/03 06:36:08;;;;;;;18.52;10.30;;;;;;;;;;4941113;29;20462;-63
2021/04/03 06:38:34;;;;;;;17.10;10.55;;;;;;;;;;4937611;29;20027;-63
2021/04/03 06:41:35;;;;;;;11.05;8.50;;;;;;;;;;4933238;29;20099;-63
2021/04/03 06:44:01;;;;;;;9.15;6.85;;;;;;;;;;4882314;29;20149;-63
2021/04/03 06:46:26;;;;;;;10.25;8.10;;;;;;;;;;4926364;29;20041;-63
2021/04/03 06:48:52;;;;;;;13.85;9.75;;;;;;;;;;4941083;29;20487;-63
2021/04/03 06:51:22;;;;;;;14.02;11.70;;;;;;;;;;4944020;28;20027;-63
2021/04/03 06:53:48;;;;;;;24.30;19.48;;;;;;;;;;4936782;28;20026;-63
2021/04/03 06:56:14;;;;;;;26.50;23.80;;;;;;;;;;4943315;29;20027;-63
2021/04/03 06:58:42;;;;;;;24.63;22.17;;;;;;;;;;4941085;28;20142;-63
2021/04/03 07:01:07;;;;;;;31.30;18.30;;;;;;;;;;4941167;29;20066;-63
2021/04/03 07:03:34;;;;;;;18.88;17.00;;;;;;;;;;4939574;28;20071;-63
2021/04/03 07:05:59;;;;;;;26.23;23.70;;;;;;;;;;4941519;29;20054;-63
2021/04/03 07:08:26;;;;;;;25.08;19.05;;;;;;;;;;4940863;29;20576;-63
2021/04/03 07:10:52;;;;;;;18.83;14.10;;;;;;;;;;4937380;29;20024;-63
2021/04/03 07:13:18;;;;;;;25.33;18.83;;;;;;;;;;4939124;28;20466;-63
2021/04/03 07:15:44;;;;;;;49.70;44.95;;;;;;;;;;4940270;28;20030;-63
2021/04/03 07:18:10;;;;;;;65.65;59.42;;;;;;;;;;4938729;29;20055;-64
2021/04/03 07:20:35;;;;;;;64.53;57.55;;;;;;;;;;4939654;28;20070;-64
2021/04/03 07:23:01;;;;;;;55.28;49.28;;;;;;;;;;4940403;29;20089;-63
2021/04/03 07:25:27;;;;;;;50.55;45.10;;;;;;;;;;4940043;29;20034;-64
2021/04/03 07:27:53;;;;;;;51.75;46.67;;;;;;;;;;4941516;28;20039;-64
2021/04/03 07:30:38;;;;;;;41.42;36.35;;;;;;;;;;4940242;28;20556;-64
2021/04/03 07:33:19;;;;;;;57.08;43.58;;;;;;;;;;4938991;29;20091;-64
2021/04/03 07:35:46;;;;;;;81.07;65.83;;;;;;;;;;4937870;28;20102;-64
2021/04/03 07:38:12;;;;;;;66.32;51.33;;;;;;;;;;4941702;28;20268;-64
2021/04/03 07:40:39;;;;;;;35.90;24.73;;;;;;;;;;4944929;28;20475;-64
2021/04/03 07:43:24;;;;;;;13.93;11.88;;;;;;;;;;4942476;29;20032;-64
2021/04/03 07:45:49;;;;;;;10.93;9.60;;;;;;;;;;4941888;29;20071;-64
2021/04/03 07:48:33;;;;;;;21.80;16.08;;;;;;;;;;4946188;29;20114;-64
2021/04/03 07:50:59;;;;;;;17.90;14.85;;;;;;;;;;4937787;29;20499;-64
2021/04/03 07:53:34;;;;;;;23.17;19.17;;;;;;;;;;4942410;28;20027;-64
2021/04/03 07:56:00;;;;;;;23.00;19.50;;;;;;;;;;4943248;29;20467;-65
2021/04/03 07:58:26;;;;;;;22.95;19.73;;;;;;;;;;4945532;28;20107;-63
2021/04/03 08:00:52;;;;;;;16.35;14.75;;;;;;;;;;4942162;29;20699;-65
2021/04/03 08:03:21;;;;;;;25.50;18.55;;;;;;;;;;4944449;29;20047;-64
2021/04/03 08:05:50;;;;;;;22.00;18.80;;;;;;;;;;4937180;28;20062;-64
2021/04/03 08:08:19;;;;;;;26.08;13.98;;;;;;;;;;4945895;29;20422;-63
2021/04/03 08:10:44;;;;;;;25.63;15.95;;;;;;;;;;4945135;28;20020;-63
2021/04/03 08:13:10;;;;;;;25.45;17.08;;;;;;;;;;4947182;28;20094;-63
2021/04/03 08:15:35;;;;;;;14.93;12.70;;;;;;;;;;4947229;28;20518;-62
2021/04/03 08:18:01;;;;;;;20.77;13.68;;;;;;;;;;4948276;29;20391;-62
2021/04/03 08:20:26;;;;;;;20.75;13.73;;;;;;;;;;4948111;28;20023;-63
2021/04/03 08:23:01;;;;;;;16.67;15.27;;;;;;;;;;4941640;29;20027;-62
2021/04/03 08:25:27;;;;;;;20.35;15.10;;;;;;;;;;4947348;29;20023;-63
2021/04/03 08:27:52;;;;;;;29.33;14.30;;;;;;;;;;4946589;29;20061;-63
2021/04/03 08:30:26;;;;;;;13.38;12.15;;;;;;;;;;4947584;29;20486;-63
2021/04/03 08:33:04;;;;;;;17.05;11.75;;;;;;;;;;4940122;29;20030;-63
2021/04/03 08:35:30;;;;;;;14.25;12.02;;;;;;;;;;4941838;29;20126;-62
2021/04/03 08:38:07;;;;;;;12.27;9.00;;;;;;;;;;4942742;29;20391;-63
2021/04/03 08:40:32;;;;;;;15.65;11.45;;;;;;;;;;4938573;29;20053;-62
2021/04/03 08:42:57;;;;;;;17.15;12.38;;;;;;;;;;4943861;28;20853;-62
2021/04/03 08:45:23;;;;;;;16.33;10.68;;;;;;;;;;4942118;29;20054;-63
2021/04/03 08:47:51;;;;;;;13.52;11.85;;;;;;;;;;4946386;29;20047;-63
2021/04/03 08:50:16;;;;;;;13.75;12.32;;;;;;;;;;4942982;29;20069;-62
2021/04/03 08:52:42;;;;;;;12.00;9.68;;;;;;;;;;4941975;29;20714;-62
2021/04/03 08:55:07;;;;;;;16.50;11.15;;;;;;;;;;4943897;28;20023;-62
2021/04/03 08:57:32;;;;;;;12.15;11.07;;;;;;;;;;4943241;28;20099;-62
2021/04/03 08:59:59;;;;;;;18.40;11.85;;;;;;;;;;4946016;28;20034;-62
2021/04/03 09:02:24;;;;;;;15.32;9.02;;;;;;;;;;4941642;28;20086;-62
2021/04/03 09:04:49;;;;;;;14.55;8.73;;;;;;;;;;4939991;29;20057;-63
2021/04/03 09:07:31;;;;;;;8.10;7.22;;;;;;;;;;4943824;28;20019;-63
2021/04/03 09:10:04;;;;;;;10.38;8.15;;;;;;;;;;4937609;29;20119;-62
2021/04/03 09:12:30;;;;;;;19.38;6.95;;;;;;;;;;4943254;28;20051;-62
2021/04/03 09:14:55;;;;;;;15.02;9.43;;;;;;;;;;4935629;29;20082;-65
2021/04/03 09:17:24;;;;;;;15.82;10.15;;;;;;;;;;4943848;28;20019;-62
2021/04/03 09:19:51;;;;;;;25.25;11.90;;;;;;;;;;4939281;29;20160;-63
2021/04/03 09:22:17;;;;;;;28.15;12.85;;;;;;;;;;4944306;28;20015;-64
2021/04/03 09:24:42;;;;;;;19.00;9.85;;;;;;;;;;4945131;29;20034;-63
2021/04/03 09:27:07;;;;;;;11.55;9.85;;;;;;;;;;4947960;28;20024;-64
2021/04/03 09:29:33;;;;;;;10.35;8.18;;;;;;;;;;4943665;29;20370;-64
2021/04/03 09:32:02;;;;;;;12.50;9.35;;;;;;;;;;4940159;28;20020;-64
2021/04/03 09:34:32;;;;;;;8.68;7.72;;;;;;;;;;4944649;28;20483;-65
2021/04/03 09:37:09;;;;;;;11.45;6.00;;;;;;;;;;4943171;28;20020;-65
2021/04/03 09:39:41;;;;;;;9.82;5.25;;;;;;;;;;4940803;28;20035;-61
2021/04/03 09:42:10;;;;;;;8.20;6.15;;;;;;;;;;4936663;29;20031;-61
2021/04/03 09:44:37;;;;;;;11.45;6.82;;;;;;;;;;4935695;28;20035;-61
2021/04/03 09:47:02;;;;;;;12.02;4.65;;;;;;;;;;4940150;29;20234;-61
2021/04/03 09:49:27;;;;;;;15.35;5.53;;;;;;;;;;4940788;28;20395;-61
2021/04/03 09:51:53;;;;;;;10.23;5.20;;;;;;;;;;4935297;29;20029;-60
2021/04/03 09:54:18;;;;;;;13.02;7.70;;;;;;;;;;4943024;28;20110;-61
2021/04/03 09:56:43;;;;;;;12.77;9.05;;;;;;;;;;4936914;29;20400;-61
2021/04/03 09:59:09;;;;;;;7.00;6.20;;;;;;;;;;4943412;29;20035;-60
2021/04/03 10:01:34;;;;;;;15.27;7.60;;;;;;;;;;4932630;28;20427;-61
2021/04/03 10:04:01;;;;;;;10.25;5.97;;;;;;;;;;4941299;29;20070;-64
2021/04/03 10:06:26;;;;;;;15.23;6.03;;;;;;;;;;4936043;28;20027;-61
2021/04/03 10:08:51;;;;;;;11.85;5.32;;;;;;;;;;4935983;29;20047;-60
2021/04/03 10:11:17;;;;;;;9.07;8.20;;;;;;;;;;4942112;28;20426;-62
2021/04/03 10:13:44;;;;;;;17.10;7.95;;;;;;;;;;4936372;29;20048;-62
2021/04/03 10:16:09;;;;;;;11.05;6.35;;;;;;;;;;4942386;29;20020;-62
2021/04/03 10:18:35;;;;;;;13.40;6.35;;;;;;;;;;4935839;28;20751;-63
2021/04/03 10:21:01;;;;;;;11.18;6.18;;;;;;;;;;4938556;29;20027;-62
2021/04/03 10:23:26;;;;;;;13.65;5.43;;;;;;;;;;4941566;28;20027;-63
2021/04/03 10:25:51;;;;;;;7.40;6.47;;;;;;;;;;4939542;29;20044;-63
2021/04/03 10:28:17;;;;;;;6.88;5.80;;;;;;;;;;4943040;28;20023;-63
2021/04/03 10:30:42;;;;;;;10.48;5.70;;;;;;;;;;4940341;28;20128;-63
2021/04/03 10:33:07;;;;;;;9.73;5.00;;;;;;;;;;4941501;29;20030;-63
2021/04/03 10:35:33;;;;;;;11.88;5.47;;;;;;;;;;4941379;28;20038;-63
2021/04/03 10:37:58;;;;;;;12.77;6.70;;;;;;;;;;4941043;29;20064;-63
2021/04/03 10:40:24;;;;;;;16.75;5.05;;;;;;;;;;4938175;28;20031;-64
2021/04/03 10:42:49;;;;;;;9.32;5.50;;;;;;;;;;4933727;29;20027;-63
2021/04/03 10:45:14;;;;;;;17.42;4.78;;;;;;;;;;4940088;29;20031;-63
2021/04/03 10:47:40;;;;;;;13.10;3.80;;;;;;;;;;4941521;28;20035;-63
2021/04/03 10:50:05;;;;;;;12.40;5.50;;;;;;;;;;4942127;29;20035;-63
2021/04/03 10:52:30;;;;;;;6.15;4.82;;;;;;;;;;4940902;28;20035;-63
2021/04/03 10:54:56;;;;;;;7.50;4.18;;;;;;;;;;4937196;29;20517;-63
2021/04/03 10:57:23;;;;;;;4.05;3.60;;;;;;;;;;4944227;28;20038;-63
2021/04/03 10:59:48;;;;;;;6.15;4.07;;;;;;;;;;4936588;29;20111;-63
2021/04/03 11:02:14;;;;;;;7.53;4.43;;;;;;;;;;4942626;28;20126;-63
2021/04/03 11:04:39;;;;;;;3.65;2.72;;;;;;;;;;4937944;28;20023;-64
2021/04/03 11:07:05;;;;;;;10.68;3.30;;;;;;;;;;4937048;29;20035;-63
2021/04/03 11:09:30;;;;;;;5.85;4.18;;;;;;;;;;4931820;29;20034;-63
2021/04/03 11:11:55;;;;;;;7.47;4.05;;;;;;;;;;4932255;29;20020;-63
2021/04/03 11:14:21;;;;;;;6.60;6.00;;;;;;;;;;4947264;28;20117;-63
2021/04/03 11:16:46;;;;;;;7.55;5.43;;;;;;;;;;4947628;28;20023;-63
2021/04/03 11:19:11;;;;;;;10.80;5.43;;;;;;;;;;4946849;28;20035;-62
2021/04/03 11:21:37;;;;;;;9.90;6.50;;;;;;;;;;4946247;28;20167;-63
2021/04/03 11:24:02;;;;;;;11.23;6.20;;;;;;;;;;4942660;29;20050;-63
2021/04/03 11:26:27;;;;;;;3.50;2.72;;;;;;;;;;4946098;28;20459;-63
2021/04/03 11:28:53;;;;;;;6.93;4.95;;;;;;;;;;4946067;29;20062;-63
2021/04/03 11:31:18;;;;;;;17.83;8.13;;;;;;;;;;4936272;28;20031;-63
2021/04/03 11:33:43;;;;;;;7.03;5.80;;;;;;;;;;4945263;29;20029;-63
2021/04/03 11:36:10;;;;;;;8.38;7.00;;;;;;;;;;4945576;29;20020;-64
2021/04/03 11:38:36;;;;;;;7.68;5.07;;;;;;;;;;4944840;28;20023;-67
2021/04/03 11:41:01;;;;;;;11.95;3.78;;;;;;;;;;4945086;29;20035;-64
2021/04/03 11:43:26;;;;;;;4.25;2.75;;;;;;;;;;4942371;28;20145;-64
2021/04/03 11:45:52;;;;;;;10.90;3.15;;;;;;;;;;4943374;29;20111;-64
2021/04/03 11:48:17;;;;;;;13.52;4.90;;;;;;;;;;4942726;28;20518;-63
2021/04/03 11:50:43;;;;;;;7.05;4.88;;;;;;;;;;4944133;28;20036;-64
2021/04/03 11:53:08;;;;;;;6.53;4.97;;;;;;;;;;4944672;29;20031;-64
2021/04/03 11:55:33;;;;;;;7.30;4.55;;;;;;;;;;4944420;28;20067;-64
2021/04/03 11:57:59;;;;;;;7.82;3.65;;;;;;;;;;4941004;29;20510;-65
2021/04/03 12:00:27;;;;;;;6.40;4.53;;;;;;;;;;4945339;28;20105;-65
2021/04/03 12:02:53;;;;;;;9.02;3.70;;;;;;;;;;4942180;29;20083;-65
2021/04/03 12:05:18;;;;;;;4.93;2.85;;;;;;;;;;4944921;28;20681;-65
2021/04/03 12:07:44;;;;;;;11.07;4.57;;;;;;;;;;4944705;28;20055;-64
2021/04/03 12:10:14;;;;;;;7.25;4.55;;;;;;;;;;4948340;28;20533;-65
2021/04/03 12:12:40;;;;;;;13.70;8.85;;;;;;;;;;4939371;28;20023;-65
2021/04/03 12:15:06;;;;;;;14.45;5.28;;;;;;;;;;4944426;28;20514;-64
2021/04/03 12:17:32;;;;;;;5.60;4.45;;;;;;;;;;4943662;28;20034;-66
2021/04/03 12:19:57;;;;;;;6.93;4.25;;;;;;;;;;4940087;29;20020;-65
2021/04/03 12:22:22;;;;;;;12.63;6.80;;;;;;;;;;4924800;28;20122;-65
2021/04/03 12:24:48;;;;;;;4.55;3.05;;;;;;;;;;4936455;28;20024;-65
2021/04/03 12:27:13;;;;;;;9.25;3.95;;;;;;;;;;4934900;29;20137;-64
2021/04/03 12:29:38;;;;;;;11.63;4.68;;;;;;;;;;4939866;28;20649;-63
2021/04/03 12:32:04;;;;;;;7.10;3.55;;;;;;;;;;4940962;29;20028;-64
2021/04/03 12:34:29;;;;;;;13.15;4.43;;;;;;;;;;4936785;28;20057;-64
2021/04/03 12:36:55;;;;;;;9.18;4.70;;;;;;;;;;4940582;29;20801;-64
2021/04/03 12:39:20;;;;;;;6.47;4.88;;;;;;;;;;4941326;28;20035;-64
2021/04/03 12:41:45;;;;;;;6.82;4.32;;;;;;;;;;4940567;29;20035;-64
2021/04/03 12:44:10;;;;;;;6.90;4.13;;;;;;;;;;4941626;29;20701;-66
2021/04/03 12:46:36;;;;;;;5.20;3.58;;;;;;;;;;4942802;28;20085;-64
2021/04/03 12:49:01;;;;;;;4.10;2.88;;;;;;;;;;4942586;29;20036;-65
2021/04/03 12:51:26;;;;;;;4.88;2.45;;;;;;;;;;4943936;28;20023;-65
2021/04/03 12:53:52;;;;;;;3.15;2.78;;;;;;;;;;4941409;29;20487;-64
2021/04/03 12:56:17;;;;;;;2.95;2.28;;;;;;;;;;4942487;28;20034;-64
2021/04/03 12:58:43;;;;;;;5.05;3.33;;;;;;;;;;4933628;29;20564;-65
2021/04/03 13:01:08;;;;;;;9.50;3.03;;;;;;;;;;4943367;29;20035;-65
2021/04/03 13:03:33;;;;;;;10.13;4.28;;;;;;;;;;4942865;28;20367;-65
2021/04/03 13:05:59;;;;;;;10.40;4.70;;;;;;;;;;4941822;29;20732;-64
2021/04/03 13:08:24;;;;;;;8.45;2.50;;;;;;;;;;4936825;28;20035;-64
2021/04/03 13:10:49;;;;;;;9.90;3.65;;;;;;;;;;4940927;29;20106;-63
2021/04/03 13:13:15;;;;;;;7.38;4.30;;;;;;;;;;4943562;29;20031;-63
2021/04/03 13:15:40;;;;;;;7.32;4.03;;;;;;;;;;4941249;28;20034;-64
2021/04/03 13:18:07;;;;;;;3.88;3.20;;;;;;;;;;4942692;29;20027;-64
2021/04/03 13:20:32;;;;;;;12.20;6.00;;;;;;;;;;4936598;28;20482;-64
2021/04/03 13:23:01;;;;;;;9.82;5.28;;;;;;;;;;4942017;29;20027;-64
2021/04/03 13:25:26;;;;;;;7.05;4.18;;;;;;;;;;4941616;28;20069;-64
2021/04/03 13:27:51;;;;;;;7.95;3.10;;;;;;;;;;4940731;29;20763;-64
2021/04/03 13:30:20;;;;;;;9.10;4.03;;;;;;;;;;4944127;28;20039;-63
2021/04/03 13:32:45;;;;;;;11.43;5.85;;;;;;;;;;4939990;28;20510;-64
2021/04/03 13:35:10;;;;;;;7.95;4.70;;;;;;;;;;4943207;29;20104;-64
2021/04/03 13:37:36;;;;;;;3.60;2.92;;;;;;;;;;4940444;28;20027;-65
2021/04/03 13:40:01;;;;;;;9.60;3.45;;;;;;;;;;4942116;29;20039;-64
2021/04/03 13:42:27;;;;;;;7.18;5.28;;;;;;;;;;4942698;28;20044;-64
2021/04/03 13:44:52;;;;;;;5.68;2.42;;;;;;;;;;4940779;29;20036;-63
2021/04/03 13:47:17;;;;;;;2.58;1.92;;;;;;;;;;4941765;28;20031;-64
2021/04/03 13:49:43;;;;;;;16.00;4.30;;;;;;;;;;4939138;28;20036;-64
2021/04/03 13:52:08;;;;;;;3.85;2.05;;;;;;;;;;4942227;29;20039;-64
2021/04/03 13:54:34;;;;;;;13.00;3.05;;;;;;;;;;4942274;28;20029;-64
2021/04/03 13:56:59;;;;;;;4.47;2.33;;;;;;;;;;4941395;29;20048;-64
2021/04/03 13:59:24;;;;;;;3.42;2.90;;;;;;;;;;4943320;28;20031;-64
2021/04/03 14:01:50;;;;;;;6.72;4.07;;;;;;;;;;4940336;29;20143;-65
2021/04/03 14:04:15;;;;;;;3.20;2.42;;;;;;;;;;4943128;29;20047;-66
2021/04/03 14:06:40;;;;;;;7.75;3.45;;;;;;;;;;4940866;28;20027;-64
2021/04/03 14:09:06;;;;;;;5.70;3.20;;;;;;;;;;4942030;29;20036;-64
2021/04/03 14:11:32;;;;;;;6.28;4.05;;;;;;;;;;4941766;28;20126;-64
2021/04/03 14:13:57;;;;;;;10.43;4.22;;;;;;;;;;4940674;29;20028;-64
2021/04/03 14:16:22;;;;;;;6.75;4.00;;;;;;;;;;4943229;28;20027;-64
2021/04/03 14:18:48;;;;;;;4.97;3.28;;;;;;;;;;4940064;29;20035;-64
2021/04/03 14:21:13;;;;;;;6.03;3.22;;;;;;;;;;4942523;29;20027;-65
2021/04/03 14:23:38;;;;;;;7.53;3.35;;;;;;;;;;4940947;28;20458;-64
2021/04/03 14:26:04;;;;;;;8.75;4.95;;;;;;;;;;4941252;29;20062;-63
2021/04/03 14:28:29;;;;;;;5.15;3.03;;;;;;;;;;4937739;29;20351;-64
2021/04/03 14:30:55;;;;;;;8.75;2.38;;;;;;;;;;4940126;29;20036;-64